Time;durP1;ratioP1;P1;durP2;ratioP2;P2;SDS_P1;SDS_P2;PMS_P1;PMS_P2;Temp;Humidity;BMP_temperature;BMP_pressure;BME280_temperature;BME280_humidity;BME280_pressure;Samples;Min_cycle;Max_cycle;Signal;HPM_P1;HPM_P2
2023/12/12 00:01:10;;;;;;;6.28;1.40;;;7.90;99.90;;;;;;4987350;28;20073;-80
2023/12/12 00:03:35;;;;;;;5.68;1.50;;;7.80;99.90;;;;;;4981354;28;20065;-80
2023/12/12 00:06:01;;;;;;;7.60;1.88;;;7.90;99.90;;;;;;4990111;28;20455;-80
2023/12/12 00:08:26;;;;;;;7.93;2.53;;;7.90;99.90;;;;;;4983872;28;20561;-80
2023/12/12 00:10:52;;;;;;;9.00;2.70;;;7.80;99.90;;;;;;4992999;28;20034;-80
2023/12/12 00:13:18;;;;;;;3.10;1.08;;;7.90;99.90;;;;;;4981169;28;20049;-80
2023/12/12 00:15:43;;;;;;;7.63;1.67;;;7.90;99.90;;;;;;4978494;28;20367;-80
2023/12/12 00:18:09;;;;;;;6.13;1.27;;;7.90;99.90;;;;;;4977621;28;20092;-80
2023/12/12 00:20:34;;;;;;;4.43;1.42;;;7.90;99.90;;;;;;4981044;28;20045;-80
2023/12/12 00:23:00;;;;;;;7.15;2.10;;;7.90;99.90;;;;;;4997879;28;20042;-80
2023/12/12 00:25:26;;;;;;;7.05;2.00;;;7.80;99.90;;;;;;4969280;28;20030;-80
2023/12/12 00:27:51;;;;;;;5.10;1.90;;;7.90;99.90;;;;;;4969160;28;20042;-80
2023/12/12 00:30:17;;;;;;;12.05;2.70;;;7.90;99.90;;;;;;4967016;28;20126;-81
2023/12/12 00:32:42;;;;;;;12.13;1.90;;;7.90;99.90;;;;;;4994825;28;20060;-80
2023/12/12 00:35:08;;;;;;;9.95;1.75;;;7.90;99.90;;;;;;4971926;28;20134;-80
2023/12/12 00:37:33;;;;;;;5.65;1.58;;;8.00;99.90;;;;;;4953150;28;20076;-80
2023/12/12 00:39:59;;;;;;;6.95;1.60;;;7.90;99.90;;;;;;4987510;28;20137;-80
2023/12/12 00:42:24;;;;;;;7.85;1.42;;;7.90;99.90;;;;;;4996466;28;20406;-80
2023/12/12 00:44:50;;;;;;;5.85;2.00;;;7.90;99.90;;;;;;4993615;28;20062;-81
2023/12/12 00:47:15;;;;;;;3.05;1.15;;;7.90;99.90;;;;;;4983280;28;20065;-80
2023/12/12 00:49:41;;;;;;;9.98;2.55;;;7.90;99.90;;;;;;4996486;28;20038;-80
2023/12/12 00:52:07;;;;;;;7.70;2.03;;;7.90;99.90;;;;;;4984798;28;20089;-80
2023/12/12 00:54:32;;;;;;;7.20;1.70;;;7.90;99.90;;;;;;4958856;28;20449;-79
2023/12/12 00:56:58;;;;;;;9.05;1.83;;;8.00;99.90;;;;;;4975777;28;22247;-80
2023/12/12 00:59:23;;;;;;;9.30;1.77;;;8.00;99.90;;;;;;4985469;28;20038;-79
2023/12/12 01:01:49;;;;;;;8.48;2.08;;;7.90;99.90;;;;;;4979777;28;20504;-80
2023/12/12 01:04:15;;;;;;;0.95;0.40;;;7.90;99.90;;;;;;4978854;28;20047;-80
2023/12/12 01:06:40;;;;;;;5.88;1.67;;;7.90;99.90;;;;;;4987997;28;20391;-80
2023/12/12 01:09:06;;;;;;;8.18;2.00;;;7.90;99.90;;;;;;4972260;28;20113;-81
2023/12/12 01:11:31;;;;;;;11.13;2.97;;;7.90;99.90;;;;;;4968140;28;20037;-80
2023/12/12 01:13:57;;;;;;;8.85;2.25;;;7.90;99.90;;;;;;4965403;28;20037;-81
2023/12/12 01:16:23;;;;;;;9.45;2.40;;;7.90;99.90;;;;;;4953317;28;20034;-80
2023/12/12 01:18:48;;;;;;;14.10;3.30;;;8.00;99.90;;;;;;4976818;28;20047;-80
2023/12/12 01:21:14;;;;;;;5.32;1.88;;;8.00;99.90;;;;;;4968997;28;20149;-81
2023/12/12 01:23:52;;;;;;;10.32;2.78;;;7.90;99.90;;;;;;4963179;28;20041;-80
2023/12/12 01:26:18;;;;;;;14.70;2.40;;;7.90;99.90;;;;;;4995132;28;20064;-81
2023/12/12 01:28:43;;;;;;;7.97;1.88;;;8.00;99.90;;;;;;4979794;28;20030;-78
2023/12/12 01:31:09;;;;;;;13.00;2.80;;;8.00;99.90;;;;;;4980786;28;20085;-80
2023/12/12 01:33:35;;;;;;;13.52;1.85;;;7.90;99.90;;;;;;4966010;28;20041;-80
2023/12/12 01:36:00;;;;;;;8.88;2.85;;;8.00;99.90;;;;;;4989845;28;20068;-80
2023/12/12 01:38:26;;;;;;;5.90;2.33;;;8.00;99.90;;;;;;4997406;28;20038;-81
2023/12/12 01:40:53;;;;;;;16.40;3.72;;;7.90;99.90;;;;;;4979325;28;20049;-80
2023/12/12 01:43:30;;;;;;;6.68;1.40;;;7.90;99.90;;;;;;4980052;28;20037;-80
2023/12/12 01:45:59;;;;;;;4.25;1.25;;;8.00;99.90;;;;;;4993149;28;20096;-81
2023/12/12 01:48:25;;;;;;;11.63;2.40;;;8.00;99.90;;;;;;4967984;28;20151;-80
2023/12/12 01:50:50;;;;;;;14.88;1.92;;;8.00;99.90;;;;;;4986925;28;20726;-80
2023/12/12 01:53:19;;;;;;;9.90;2.28;;;8.00;99.90;;;;;;4999027;28;20045;-80
2023/12/12 01:55:44;;;;;;;15.77;2.45;;;8.00;99.90;;;;;;4963407;28;20070;-81
2023/12/12 01:58:10;;;;;;;11.75;2.35;;;8.00;99.90;;;;;;4957974;28;20552;-80
2023/12/12 02:00:35;;;;;;;12.15;2.50;;;8.00;99.90;;;;;;4970181;28;20121;-80
2023/12/12 02:03:01;;;;;;;14.57;2.55;;;8.00;99.90;;;;;;4994487;28;20497;-81
2023/12/12 02:05:27;;;;;;;6.22;1.73;;;8.00;99.90;;;;;;4998993;28;20386;-81
2023/12/12 02:07:52;;;;;;;8.05;2.17;;;8.00;99.90;;;;;;4983437;28;20426;-82
2023/12/12 02:10:19;;;;;;;11.20;4.00;;;8.00;99.90;;;;;;4984541;28;20082;-82
2023/12/12 02:12:44;;;;;;;9.15;1.80;;;8.00;99.90;;;;;;5001086;28;20130;-78
2023/12/12 02:15:10;;;;;;;6.05;1.92;;;7.90;99.90;;;;;;4986621;28;20140;-81
2023/12/12 02:17:36;;;;;;;7.10;2.20;;;8.00;99.90;;;;;;4970401;28;20034;-79
2023/12/12 02:20:01;;;;;;;11.75;2.75;;;7.90;99.90;;;;;;4961792;28;20494;-79
2023/12/12 02:22:27;;;;;;;12.02;2.38;;;7.90;99.90;;;;;;4977687;28;20061;-81
2023/12/12 02:24:54;;;;;;;13.27;3.38;;;8.00;99.90;;;;;;4975426;28;20360;-79
2023/12/12 02:27:20;;;;;;;9.50;2.28;;;7.90;99.90;;;;;;4995668;28;20069;-81
2023/12/12 02:29:45;;;;;;;13.90;2.40;;;7.90;99.90;;;;;;4981245;28;20641;-82
2023/12/12 02:32:11;;;;;;;10.48;2.40;;;7.90;99.90;;;;;;4987269;28;20038;-81
2023/12/12 02:34:38;;;;;;;16.48;2.85;;;7.90;99.90;;;;;;4987189;28;20038;-81
2023/12/12 02:37:03;;;;;;;8.40;2.05;;;7.90;99.90;;;;;;4997703;28;20034;-81
2023/12/12 02:39:29;;;;;;;20.27;2.70;;;7.90;99.90;;;;;;4975869;28;20161;-81
2023/12/12 02:41:54;;;;;;;10.32;2.13;;;7.90;99.90;;;;;;4995731;28;20042;-81
2023/12/12 02:44:20;;;;;;;10.13;2.65;;;7.90;99.90;;;;;;4998935;28;20034;-81
2023/12/12 02:46:45;;;;;;;9.73;2.15;;;8.00;99.90;;;;;;4984099;28;20480;-81
2023/12/12 02:49:11;;;;;;;12.07;2.17;;;8.00;99.90;;;;;;4984360;28;20170;-81
2023/12/12 02:51:36;;;;;;;8.07;1.77;;;8.00;99.90;;;;;;4998972;28;20463;-80
2023/12/12 02:54:02;;;;;;;19.80;2.65;;;8.00;99.90;;;;;;4984112;28;20034;-81
2023/12/12 02:56:33;;;;;;;6.55;2.25;;;8.00;99.90;;;;;;4972185;28;20372;-81
2023/12/12 02:58:59;;;;;;;9.32;2.30;;;8.00;99.90;;;;;;4995268;28;20042;-81
2023/12/12 03:01:25;;;;;;;18.05;5.05;;;8.00;99.90;;;;;;4984620;28;20037;-81
2023/12/12 03:03:50;;;;;;;14.23;2.60;;;8.00;99.90;;;;;;4996443;28;20365;-81
2023/12/12 03:06:17;;;;;;;13.25;2.63;;;8.00;99.90;;;;;;4985322;28;20149;-81
2023/12/12 03:08:42;;;;;;;13.52;2.30;;;8.00;99.90;;;;;;4996078;28;20513;-81
2023/12/12 03:11:08;;;;;;;13.38;2.50;;;8.00;99.90;;;;;;4982094;28;20041;-81
2023/12/12 03:13:33;;;;;;;16.00;2.72;;;7.90;99.90;;;;;;4999439;28;20034;-81
2023/12/12 03:15:59;;;;;;;11.80;2.60;;;7.90;99.90;;;;;;4997828;28;20026;-81
2023/12/12 03:18:25;;;;;;;13.25;3.00;;;8.00;99.90;;;;;;4993803;28;20038;-81
2023/12/12 03:20:50;;;;;;;12.50;2.03;;;7.90;99.90;;;;;;4999322;28;20472;-82
2023/12/12 03:23:16;;;;;;;17.88;2.50;;;7.90;99.90;;;;;;4993575;28;20025;-81
2023/12/12 03:25:43;;;;;;;16.02;2.90;;;7.90;99.90;;;;;;4980280;28;20037;-82
2023/12/12 03:28:08;;;;;;;12.75;2.13;;;7.90;99.90;;;;;;4997902;28;20104;-79
2023/12/12 03:30:34;;;;;;;7.78;1.30;;;7.90;99.90;;;;;;4974020;28;20049;-79
2023/12/12 03:32:59;;;;;;;8.73;1.95;;;8.00;99.90;;;;;;4981500;28;20061;-79
2023/12/12 03:35:25;;;;;;;14.43;2.33;;;8.00;99.90;;;;;;4984377;28;20113;-80
2023/12/12 03:37:50;;;;;;;14.43;3.22;;;7.90;99.90;;;;;;4969189;28;20045;-79
2023/12/12 03:40:16;;;;;;;17.63;3.30;;;7.90;99.90;;;;;;4983737;28;20038;-80
2023/12/12 03:42:41;;;;;;;15.40;2.35;;;8.00;99.90;;;;;;4992924;28;20117;-79
2023/12/12 03:45:08;;;;;;;14.38;2.67;;;8.00;99.90;;;;;;4993414;28;20093;-80
2023/12/12 03:47:33;;;;;;;12.93;2.40;;;7.90;99.90;;;;;;4981542;28;20061;-80
2023/12/12 03:49:59;;;;;;;13.40;3.75;;;7.90;99.90;;;;;;4997870;28;20034;-80
2023/12/12 03:52:24;;;;;;;22.70;3.40;;;7.90;99.90;;;;;;4982769;28;20032;-77
2023/12/12 03:54:52;;;;;;;10.52;2.75;;;7.90;99.90;;;;;;4991092;28;20062;-80
2023/12/12 03:57:17;;;;;;;14.70;2.47;;;7.90;99.90;;;;;;4987984;28;20041;-80
2023/12/12 03:59:44;;;;;;;10.55;2.30;;;7.80;99.90;;;;;;5000181;28;20089;-78
2023/12/12 04:02:09;;;;;;;13.45;2.20;;;7.80;99.90;;;;;;4968697;28;20121;-78
2023/12/12 04:04:35;;;;;;;15.35;2.78;;;7.80;99.90;;;;;;4981996;28;20123;-78
2023/12/12 04:07:00;;;;;;;24.75;3.10;;;7.80;99.90;;;;;;4972412;28;20081;-78
2023/12/12 04:09:26;;;;;;;10.45;2.42;;;7.80;99.90;;;;;;4995203;28;20049;-78
2023/12/12 04:11:51;;;;;;;24.73;4.28;;;7.80;99.90;;;;;;4993791;28;20033;-77
2023/12/12 04:14:17;;;;;;;14.15;2.60;;;7.80;99.90;;;;;;4991034;28;20384;-77
2023/12/12 04:16:42;;;;;;;19.25;3.38;;;7.80;99.90;;;;;;4997995;28;20483;-78
2023/12/12 04:19:08;;;;;;;11.60;2.20;;;7.80;99.90;;;;;;4975058;28;20042;-77
2023/12/12 04:21:33;;;;;;;13.27;2.78;;;7.80;99.90;;;;;;4994266;28;20946;-78
2023/12/12 04:23:59;;;;;;;25.30;3.53;;;7.80;99.90;;;;;;4989646;28;20029;-77
2023/12/12 04:26:29;;;;;;;13.48;2.65;;;7.80;99.90;;;;;;4982751;28;20038;-77
2023/12/12 04:28:54;;;;;;;14.63;2.55;;;7.80;99.90;;;;;;5000344;28;20691;-78
2023/12/12 04:31:20;;;;;;;17.90;3.67;;;7.80;99.90;;;;;;4972275;28;20042;-78
2023/12/12 04:33:45;;;;;;;25.85;3.65;;;7.80;99.90;;;;;;5004778;28;20033;-78
2023/12/12 04:36:14;;;;;;;18.17;6.18;;;7.80;99.90;;;;;;4991766;28;20062;-80
2023/12/12 04:38:39;;;;;;;14.40;3.20;;;7.70;99.90;;;;;;4998468;28;20956;-79
2023/12/12 04:41:05;;;;;;;20.55;2.70;;;7.70;99.90;;;;;;4997004;28;20061;-79
2023/12/12 04:43:31;;;;;;;26.70;3.78;;;7.70;99.90;;;;;;4982839;28;20501;-79
2023/12/12 04:45:57;;;;;;;22.75;2.70;;;7.70;99.90;;;;;;4993589;28;20031;-80
2023/12/12 04:48:22;;;;;;;25.58;4.32;;;7.70;99.90;;;;;;4984795;28;20030;-79
2023/12/12 04:50:49;;;;;;;17.92;3.47;;;7.70;99.90;;;;;;4981542;28;20038;-79
2023/12/12 04:53:16;;;;;;;14.88;2.90;;;7.70;99.90;;;;;;4980083;28;20038;-79
2023/12/12 04:55:42;;;;;;;18.52;3.08;;;7.60;99.90;;;;;;4986880;28;20070;-79
2023/12/12 04:58:07;;;;;;;16.30;3.30;;;7.60;99.90;;;;;;4981388;28;20037;-79
2023/12/12 05:00:33;;;;;;;21.45;2.78;;;7.60;99.90;;;;;;4996130;28;20428;-79
2023/12/12 05:02:58;;;;;;;24.23;3.35;;;7.60;99.90;;;;;;4968028;28;20104;-79
2023/12/12 05:05:24;;;;;;;20.80;3.28;;;7.60;99.90;;;;;;4982306;28;20449;-79
2023/12/12 05:07:49;;;;;;;16.27;2.80;;;7.50;99.90;;;;;;4968130;28;20397;-79
2023/12/12 05:10:15;;;;;;;20.90;3.95;;;7.50;99.90;;;;;;4994890;28;20543;-79
2023/12/12 05:12:40;;;;;;;13.70;3.47;;;7.50;99.90;;;;;;4994028;28;20042;-79
2023/12/12 05:15:07;;;;;;;19.45;3.05;;;7.40;99.90;;;;;;4996708;28;20176;-79
2023/12/12 05:17:32;;;;;;;18.40;3.50;;;7.40;99.90;;;;;;4995240;28;20037;-79
2023/12/12 05:19:58;;;;;;;25.25;4.25;;;7.40;99.90;;;;;;4998281;28;20042;-79
2023/12/12 05:22:24;;;;;;;14.05;2.85;;;7.30;99.90;;;;;;4979121;28;20034;-80
2023/12/12 05:24:49;;;;;;;15.40;3.25;;;7.30;99.90;;;;;;4992064;28;20663;-79
2023/12/12 05:27:15;;;;;;;23.95;4.38;;;7.20;99.90;;;;;;4982123;28;20073;-79
2023/12/12 05:29:40;;;;;;;14.38;2.40;;;7.20;99.90;;;;;;5003113;28;20060;-79
2023/12/12 05:32:06;;;;;;;20.83;4.15;;;7.10;99.90;;;;;;4997291;28;20053;-79
2023/12/12 05:34:32;;;;;;;15.73;3.40;;;7.00;99.90;;;;;;4986869;28;20120;-80
2023/12/12 05:36:57;;;;;;;24.60;4.65;;;7.00;99.90;;;;;;5001152;28;20036;-80
2023/12/12 05:39:23;;;;;;;10.90;2.88;;;6.90;99.90;;;;;;4981814;28;20396;-79
2023/12/12 05:41:48;;;;;;;34.10;4.80;;;6.90;99.90;;;;;;4981476;28;20059;-79
2023/12/12 05:44:14;;;;;;;17.85;4.10;;;6.80;99.90;;;;;;4983598;28;20038;-79
2023/12/12 05:46:40;;;;;;;26.83;4.40;;;6.70;99.90;;;;;;5016935;28;20123;-76
2023/12/12 05:49:08;;;;;;;16.65;3.65;;;6.70;99.90;;;;;;4980854;28;20078;-77
2023/12/12 05:51:34;;;;;;;17.75;3.88;;;6.70;99.90;;;;;;5000168;28;20030;-76
2023/12/12 05:54:00;;;;;;;14.27;3.35;;;6.80;99.90;;;;;;4998509;28;20184;-77
2023/12/12 05:56:25;;;;;;;22.58;3.95;;;6.80;99.90;;;;;;5016418;28;20141;-76
2023/12/12 05:58:51;;;;;;;13.73;3.10;;;6.80;99.90;;;;;;4986837;28;20069;-78
2023/12/12 06:01:17;;;;;;;28.30;4.90;;;6.80;99.90;;;;;;5002101;28;20038;-75
2023/12/12 06:03:42;;;;;;;13.77;2.67;;;6.80;99.90;;;;;;4983413;28;20033;-76
2023/12/12 06:06:09;;;;;;;18.85;3.15;;;6.90;99.90;;;;;;4998847;28;20070;-76
2023/12/12 06:08:36;;;;;;;19.50;5.13;;;6.90;99.90;;;;;;4996398;28;20502;-76
2023/12/12 06:11:02;;;;;;;22.83;4.05;;;6.90;99.90;;;;;;4997437;28;20034;-77
2023/12/12 06:13:28;;;;;;;9.57;2.95;;;6.90;99.90;;;;;;4982045;28;20038;-77
2023/12/12 06:15:53;;;;;;;19.33;3.80;;;6.90;99.90;;;;;;4996529;28;20030;-78
2023/12/12 06:18:19;;;;;;;18.05;3.22;;;6.80;99.90;;;;;;4980934;28;20045;-77
2023/12/12 06:20:45;;;;;;;19.60;5.43;;;6.80;99.90;;;;;;4985298;28;20701;-77
2023/12/12 06:23:12;;;;;;;16.85;3.63;;;6.90;99.90;;;;;;4998674;28;20184;-77
2023/12/12 06:25:38;;;;;;;13.48;3.15;;;6.90;99.90;;;;;;4973257;28;20046;-77
2023/12/12 06:28:04;;;;;;;13.88;3.05;;;6.90;99.90;;;;;;4976975;28;20042;-78
2023/12/12 06:30:29;;;;;;;23.13;3.33;;;6.90;99.90;;;;;;4996578;28;20038;-77
2023/12/12 06:32:55;;;;;;;16.25;3.60;;;7.00;99.90;;;;;;4994315;28;20113;-78
2023/12/12 06:35:22;;;;;;;17.08;3.05;;;6.90;99.90;;;;;;4983559;28;20494;-77
2023/12/12 06:37:48;;;;;;;22.70;3.72;;;7.00;99.90;;;;;;4966702;28;20031;-77
2023/12/12 06:40:14;;;;;;;28.77;4.43;;;7.00;99.90;;;;;;4992218;28;20570;-77
2023/12/12 06:42:40;;;;;;;22.30;4.30;;;7.00;99.90;;;;;;4984744;28;20088;-77
2023/12/12 06:45:10;;;;;;;18.00;3.80;;;7.00;99.90;;;;;;4999066;28;21454;-77
2023/12/12 06:47:35;;;;;;;16.10;3.55;;;7.00;99.90;;;;;;4993874;28;20058;-76
2023/12/12 06:50:03;;;;;;;24.40;4.10;;;7.00;99.90;;;;;;4992001;28;20068;-76
2023/12/12 06:52:28;;;;;;;12.45;3.17;;;7.00;99.90;;;;;;4968458;28;20491;-76
2023/12/12 06:54:54;;;;;;;12.68;3.08;;;7.00;99.90;;;;;;4981036;28;20035;-76
2023/12/12 06:57:19;;;;;;;15.70;3.30;;;7.10;99.90;;;;;;4987593;28;20042;-81
2023/12/12 06:59:45;;;;;;;19.95;3.38;;;7.10;99.90;;;;;;4967982;28;20097;-80
2023/12/12 07:02:11;;;;;;;18.00;3.17;;;7.10;99.90;;;;;;4981186;28;20037;-79
2023/12/12 07:04:36;;;;;;;26.40;4.85;;;7.10;99.90;;;;;;4996276;28;20520;-79
2023/12/12 07:07:02;;;;;;;17.10;3.67;;;7.10;99.90;;;;;;4986546;28;20038;-79
2023/12/12 07:09:28;;;;;;;25.50;4.07;;;7.10;99.90;;;;;;4982772;28;20029;-80
2023/12/12 07:11:53;;;;;;;22.15;5.90;;;7.10;99.90;;;;;;4984857;28;20474;-79
2023/12/12 07:14:19;;;;;;;19.38;3.75;;;7.10;99.90;;;;;;4981691;28;20034;-79
2023/12/12 07:16:44;;;;;;;20.83;3.88;;;7.10;99.90;;;;;;4983804;28;20466;-79
2023/12/12 07:19:10;;;;;;;17.92;3.60;;;7.10;99.90;;;;;;4982977;28;20474;-79
2023/12/12 07:21:39;;;;;;;15.00;4.60;;;7.10;99.90;;;;;;4987287;28;20026;-77
2023/12/12 07:24:05;;;;;;;19.40;3.40;;;7.20;99.90;;;;;;4986976;28;20063;-76
2023/12/12 07:26:31;;;;;;;19.70;3.70;;;7.20;99.90;;;;;;4986419;28;20073;-77
2023/12/12 07:28:57;;;;;;;23.48;4.15;;;7.20;99.90;;;;;;4991214;28;20034;-78
2023/12/12 07:31:22;;;;;;;17.77;4.32;;;7.20;99.90;;;;;;4986693;28;20414;-77
2023/12/12 07:33:48;;;;;;;13.85;2.95;;;7.20;99.90;;;;;;4979735;28;20062;-77
2023/12/12 07:36:14;;;;;;;16.67;3.08;;;7.20;99.90;;;;;;4991056;28;20029;-77
2023/12/12 07:38:39;;;;;;;18.00;3.78;;;7.20;99.90;;;;;;4985827;28;20383;-77
2023/12/12 07:41:05;;;;;;;17.52;3.80;;;7.20;99.90;;;;;;4982933;28;20038;-77
2023/12/12 07:43:31;;;;;;;17.33;3.45;;;7.20;99.90;;;;;;4978358;28;20031;-78
2023/12/12 07:45:56;;;;;;;20.88;3.42;;;7.20;99.90;;;;;;4992681;28;20084;-77
2023/12/12 07:48:22;;;;;;;18.10;3.95;;;7.30;99.90;;;;;;4968121;28;20025;-77
2023/12/12 07:50:47;;;;;;;19.80;3.83;;;7.30;99.90;;;;;;4967980;28;20034;-78
2023/12/12 07:53:13;;;;;;;16.50;3.35;;;7.30;99.90;;;;;;4968744;28;20034;-77
2023/12/12 07:55:38;;;;;;;17.90;3.30;;;7.30;99.90;;;;;;4977472;28;20042;-77
2023/12/12 07:58:04;;;;;;;14.82;3.25;;;7.40;99.90;;;;;;4978932;28;20038;-77
2023/12/12 08:00:29;;;;;;;15.60;3.67;;;7.30;99.90;;;;;;4979280;28;20482;-77
2023/12/12 08:02:55;;;;;;;19.98;3.10;;;7.40;99.90;;;;;;4973022;28;20038;-78
2023/12/12 08:05:21;;;;;;;19.58;3.70;;;7.40;99.90;;;;;;4967419;28;20046;-77
2023/12/12 08:07:47;;;;;;;13.73;3.05;;;7.50;99.90;;;;;;4982470;28;20030;-76
2023/12/12 08:10:13;;;;;;;14.88;3.33;;;7.40;99.90;;;;;;4978944;28;20049;-76
2023/12/12 08:12:39;;;;;;;16.75;3.20;;;7.50;99.90;;;;;;4967168;28;20120;-76
2023/12/12 08:15:05;;;;;;;25.85;3.88;;;7.50;99.90;;;;;;4983343;28;20065;-76
2023/12/12 08:17:30;;;;;;;20.50;3.78;;;7.50;99.90;;;;;;4980436;28;20121;-76
2023/12/12 08:19:56;;;;;;;22.02;4.30;;;7.50;99.90;;;;;;4979278;28;20042;-77
2023/12/12 08:22:21;;;;;;;17.60;2.78;;;7.60;99.90;;;;;;4970865;28;20037;-76
2023/12/12 08:24:51;;;;;;;16.02;4.68;;;7.60;99.90;;;;;;4995174;28;20037;-77
2023/12/12 08:27:20;;;;;;;17.55;4.05;;;7.60;99.90;;;;;;4976111;28;20042;-76
2023/12/12 08:29:46;;;;;;;12.05;3.53;;;7.70;99.90;;;;;;4997141;28;20091;-77
2023/12/12 08:32:12;;;;;;;20.90;3.30;;;7.70;99.90;;;;;;4992972;28;20042;-77
2023/12/12 08:34:38;;;;;;;15.05;2.97;;;7.80;99.90;;;;;;4992721;28;20694;-77
2023/12/12 08:37:04;;;;;;;21.05;3.70;;;7.80;99.90;;;;;;4995441;28;20058;-77
2023/12/12 08:39:30;;;;;;;16.67;3.88;;;7.80;99.90;;;;;;4996128;28;20188;-77
2023/12/12 08:41:57;;;;;;;20.33;3.92;;;7.80;99.90;;;;;;4982120;28;20037;-77
2023/12/12 08:44:23;;;;;;;26.30;4.15;;;7.90;99.90;;;;;;4995409;28;20037;-77
2023/12/12 08:46:49;;;;;;;14.80;2.97;;;7.90;99.90;;;;;;4995346;28;20049;-77
2023/12/12 08:49:17;;;;;;;27.20;3.47;;;7.90;99.90;;;;;;4981788;28;20518;-77
2023/12/12 08:51:43;;;;;;;17.27;3.65;;;8.00;99.90;;;;;;4993146;28;20034;-77
2023/12/12 08:54:09;;;;;;;13.38;3.08;;;8.00;99.90;;;;;;4970314;28;20044;-76
2023/12/12 08:56:36;;;;;;;15.93;4.20;;;8.10;99.90;;;;;;4997326;28;20145;-75
2023/12/12 08:59:02;;;;;;;17.60;3.03;;;8.10;99.90;;;;;;4996303;28;20099;-76
2023/12/12 09:01:27;;;;;;;21.00;3.70;;;8.10;99.90;;;;;;4996448;28;20026;-77
2023/12/12 09:03:53;;;;;;;10.50;2.85;;;8.20;99.90;;;;;;4984583;28;20128;-77
2023/12/12 09:06:19;;;;;;;12.50;3.25;;;8.20;99.90;;;;;;4981243;28;20110;-77
2023/12/12 09:08:44;;;;;;;15.77;3.03;;;8.20;99.90;;;;;;4997320;28;20064;-77
2023/12/12 09:11:10;;;;;;;17.33;4.35;;;8.30;99.90;;;;;;5000291;28;20049;-77
2023/12/12 09:13:36;;;;;;;18.50;3.38;;;8.30;99.90;;;;;;4981056;28;20026;-77
2023/12/12 09:16:02;;;;;;;13.85;3.05;;;8.40;99.90;;;;;;4998209;28;20061;-78
2023/12/12 09:18:27;;;;;;;24.63;4.20;;;8.50;99.90;;;;;;4982255;28;20030;-77
2023/12/12 09:21:04;;;;;;;21.52;3.92;;;8.50;99.90;;;;;;4976430;28;20046;-78
2023/12/12 09:23:30;;;;;;;15.00;4.05;;;8.60;99.90;;;;;;4980513;28;20062;-77
2023/12/12 09:25:56;;;;;;;9.70;2.75;;;8.70;99.90;;;;;;4983390;28;20469;-77
2023/12/12 09:28:22;;;;;;;15.98;3.42;;;8.70;99.90;;;;;;4977436;28;20113;-79
2023/12/12 09:30:47;;;;;;;21.05;3.38;;;8.80;99.90;;;;;;4997730;28;20038;-77
2023/12/12 09:33:13;;;;;;;21.75;3.25;;;8.90;99.90;;;;;;4978121;28;20652;-77
2023/12/12 09:35:39;;;;;;;13.32;3.72;;;9.10;99.90;;;;;;4969440;28;20409;-79
2023/12/12 09:38:05;;;;;;;16.65;3.58;;;9.20;99.90;;;;;;4980772;28;20112;-79
2023/12/12 09:40:30;;;;;;;15.88;2.90;;;9.40;99.90;;;;;;5001320;28;20041;-79
2023/12/12 09:42:56;;;;;;;19.85;4.55;;;9.40;99.90;;;;;;4989609;28;20034;-79
2023/12/12 09:45:21;;;;;;;17.45;3.15;;;9.50;99.90;;;;;;4971767;28;20414;-79
2023/12/12 09:47:47;;;;;;;14.73;3.25;;;9.60;99.90;;;;;;4973036;28;20034;-80
2023/12/12 09:50:13;;;;;;;15.40;2.83;;;9.60;99.90;;;;;;4963163;28;20121;-80
2023/12/12 09:52:39;;;;;;;14.40;2.90;;;9.70;99.90;;;;;;4981677;28;20513;-79
2023/12/12 09:55:05;;;;;;;11.80;2.40;;;9.70;99.90;;;;;;4984970;28;20623;-80
2023/12/12 09:57:32;;;;;;;17.25;3.10;;;9.80;99.90;;;;;;5003643;28;20528;-79
2023/12/12 09:59:58;;;;;;;19.25;4.35;;;9.90;99.90;;;;;;4976826;28;20052;-80
2023/12/12 10:02:33;;;;;;;13.32;2.72;;;10.20;99.90;;;;;;4995979;28;20042;-79
2023/12/12 10:04:59;;;;;;;7.38;2.38;;;10.50;99.90;;;;;;4997572;28;20057;-79
2023/12/12 10:07:25;;;;;;;10.23;2.63;;;10.60;99.90;;;;;;4964556;28;20049;-79
2023/12/12 10:09:50;;;;;;;12.27;2.80;;;10.60;99.90;;;;;;4962411;28;20030;-79
2023/12/12 10:12:17;;;;;;;12.90;2.92;;;10.80;99.90;;;;;;4983570;28;20042;-79
2023/12/12 10:14:47;;;;;;;14.30;2.88;;;11.00;99.90;;;;;;4999434;28;20393;-79
2023/12/12 10:17:13;;;;;;;8.23;2.28;;;10.90;99.90;;;;;;4998195;28;20066;-80
2023/12/12 10:19:39;;;;;;;13.32;2.63;;;11.20;99.90;;;;;;4982931;28;20054;-80
2023/12/12 10:22:05;;;;;;;9.50;1.85;;;11.30;99.90;;;;;;4984857;28;20035;-79
2023/12/12 10:24:30;;;;;;;11.90;2.15;;;11.40;99.90;;;;;;5001219;28;20114;-80
2023/12/12 10:26:56;;;;;;;10.55;2.17;;;11.40;99.90;;;;;;4993300;28;20034;-80
2023/12/12 10:29:22;;;;;;;11.30;2.50;;;11.50;99.90;;;;;;4997647;28;20110;-79
2023/12/12 10:31:47;;;;;;;15.02;2.85;;;11.70;99.90;;;;;;4999306;28;20513;-80
2023/12/12 10:34:13;;;;;;;17.48;2.88;;;11.80;99.90;;;;;;4982578;28;20096;-80
2023/12/12 10:36:41;;;;;;;7.43;1.92;;;11.80;99.90;;;;;;4999538;28;20100;-79
2023/12/12 10:39:12;;;;;;;15.55;2.95;;;11.70;99.90;;;;;;4986652;28;20038;-80
2023/12/12 10:41:38;;;;;;;11.23;1.88;;;12.00;99.90;;;;;;4981782;28;20087;-79
2023/12/12 10:44:05;;;;;;;6.28;1.67;;;12.00;99.90;;;;;;4994326;28;20030;-80
2023/12/12 10:46:32;;;;;;;10.95;2.40;;;12.20;99.90;;;;;;4984374;28;20097;-79
2023/12/12 10:48:57;;;;;;;4.78;1.90;;;12.30;99.90;;;;;;4983241;28;20054;-79
2023/12/12 10:51:23;;;;;;;10.25;1.88;;;12.50;99.90;;;;;;4997689;28;20117;-80
2023/12/12 10:53:51;;;;;;;12.57;1.98;;;12.50;99.90;;;;;;4997151;28;20034;-79
2023/12/12 10:56:17;;;;;;;7.18;2.15;;;12.60;99.90;;;;;;4995718;28;20470;-79
2023/12/12 10:58:43;;;;;;;9.60;2.30;;;12.60;99.90;;;;;;4977995;28;20031;-79
2023/12/12 11:01:10;;;;;;;12.75;2.05;;;12.60;99.90;;;;;;4998693;28;20034;-79
2023/12/12 11:03:36;;;;;;;6.63;1.95;;;12.90;99.90;;;;;;5010270;28;20104;-79
2023/12/12 11:06:03;;;;;;;8.85;2.28;;;13.10;99.90;;;;;;4995006;28;20041;-79
2023/12/12 11:08:28;;;;;;;5.13;1.73;;;13.20;99.90;;;;;;5010873;28;20088;-79
2023/12/12 11:10:54;;;;;;;7.07;1.52;;;13.20;99.90;;;;;;4982366;28;20402;-79
2023/12/12 11:13:30;;;;;;;14.25;1.90;;;13.20;99.90;;;;;;4996563;28;20077;-80
2023/12/12 11:15:57;;;;;;;9.40;1.52;;;13.10;99.90;;;;;;4996622;28;20050;-80
2023/12/12 11:18:23;;;;;;;8.27;2.45;;;;;;;;;;4954540;28;20486;-80
2023/12/12 11:20:51;;;;;;;7.38;1.20;;;13.30;99.90;;;;;;4980818;28;20097;-80
2023/12/12 11:23:46;;;;;;;8.10;1.60;;;13.40;99.90;;;;;;4997597;28;20556;-81
2023/12/12 11:26:15;;;;;;;11.07;1.67;;;13.40;99.90;;;;;;4994511;28;20046;-80
2023/12/12 11:28:43;;;;;;;5.43;1.77;;;13.30;99.90;;;;;;4988513;28;20394;-80
2023/12/12 11:31:09;;;;;;;7.47;1.55;;;13.40;99.90;;;;;;4981987;28;20062;-79
2023/12/12 11:33:36;;;;;;;6.05;1.33;;;13.40;99.90;;;;;;4974892;28;20104;-80
2023/12/12 11:36:03;;;;;;;7.75;1.38;;;13.20;99.90;;;;;;4979997;28;20041;-79
2023/12/12 11:38:29;;;;;;;7.20;1.27;;;13.20;99.90;;;;;;4979429;28;20031;-79
2023/12/12 11:41:09;;;;;;;12.30;1.80;;;13.30;99.90;;;;;;4995498;28;20515;-80
2023/12/12 11:43:34;;;;;;;8.30;1.42;;;13.40;99.90;;;;;;4981279;28;20041;-80
2023/12/12 11:46:00;;;;;;;7.13;1.27;;;13.60;99.90;;;;;;4993568;28;20593;-80
2023/12/12 11:48:27;;;;;;;7.05;1.38;;;13.70;99.90;;;;;;4981394;28;20034;-79
2023/12/12 11:50:52;;;;;;;3.90;1.20;;;13.60;99.90;;;;;;4995227;28;20389;-79
2023/12/12 11:53:37;;;;;;;7.20;1.35;;;13.50;99.90;;;;;;4984097;28;20038;-80
2023/12/12 11:56:03;;;;;;;8.82;1.35;;;13.60;99.90;;;;;;4993231;28;20033;-79
2023/12/12 11:58:29;;;;;;;7.00;1.92;;;13.60;99.90;;;;;;4967616;28;20031;-80
2023/12/12 12:00:55;;;;;;;5.95;1.17;;;13.60;99.90;;;;;;4995083;28;20482;-80
2023/12/12 12:03:21;;;;;;;6.03;1.67;;;13.50;99.90;;;;;;4283975;28;10000432;-79
2023/12/12 12:05:46;;;;;;;8.57;1.42;;;13.40;99.90;;;;;;4980611;28;20773;-80
2023/12/12 12:08:12;;;;;;;6.47;1.50;;;13.30;99.90;;;;;;4992221;28;20049;-80
2023/12/12 12:10:39;;;;;;;3.78;1.00;;;13.30;99.90;;;;;;4975068;28;20136;-79
2023/12/12 12:13:05;;;;;;;3.85;1.25;;;13.30;99.90;;;;;;4951585;28;20026;-80
2023/12/12 12:15:31;;;;;;;7.57;1.35;;;13.30;99.90;;;;;;4977448;28;20050;-81
2023/12/12 12:17:57;;;;;;;4.22;0.85;;;13.30;99.90;;;;;;4992679;28;20395;-80
2023/12/12 12:20:22;;;;;;;6.13;1.23;;;13.20;99.90;;;;;;4995814;28;20038;-81
2023/12/12 12:22:48;;;;;;;2.50;0.82;;;13.20;99.90;;;;;;4982337;28;20549;-80
2023/12/12 12:25:20;;;;;;;6.93;1.20;;;13.20;99.90;;;;;;4993956;28;20030;-80
2023/12/12 12:27:53;;;;;;;9.02;1.20;;;13.00;99.90;;;;;;4960532;28;20033;-80
2023/12/12 12:30:19;;;;;;;6.68;0.90;;;13.00;99.90;;;;;;4975991;28;20073;-80
2023/12/12 12:33:01;;;;;;;3.17;1.25;;;13.00;99.90;;;;;;4971483;28;20184;-80
2023/12/12 12:35:27;;;;;;;7.28;1.00;;;12.90;99.90;;;;;;4987242;28;20733;-80
2023/12/12 12:37:53;;;;;;;5.97;1.27;;;12.90;99.90;;;;;;4992314;28;20034;-81
2023/12/12 12:40:39;;;;;;;5.28;1.00;;;12.90;99.90;;;;;;4979074;28;20552;-81
2023/12/12 12:43:14;;;;;;;5.10;0.98;;;12.80;99.90;;;;;;4964009;28;20103;-81